createdAt,value
2023-03-21T00:00:57.668Z,42.00
2023-03-21T00:04:02.351Z,47.43
2023-03-21T00:07:07.094Z,47.40
2023-03-21T00:10:18.134Z,46.10
2023-03-21T00:13:26.633Z,45.67
2023-03-21T00:16:39.778Z,41.97
2023-03-21T00:19:45.023Z,48.17
2023-03-21T00:22:48.859Z,46.63
2023-03-21T00:25:54.021Z,42.00
2023-03-21T00:28:57.775Z,45.43
2023-03-21T00:32:01.446Z,45.07
2023-03-21T00:35:38.301Z,46.40
2023-03-21T00:38:29.509Z,40.80
2023-03-21T00:41:42.370Z,41.00
2023-03-21T00:44:46.608Z,39.63
2023-03-21T00:47:50.690Z,41.23
2023-03-21T00:50:57.217Z,38.20
2023-03-21T00:54:01.112Z,41.40
2023-03-21T00:57:06.289Z,38.37
2023-03-21T01:00:14.213Z,38.77
2023-03-21T01:03:25.070Z,38.87
2023-03-21T01:06:29.281Z,38.27
2023-03-21T01:09:33.101Z,37.90
2023-03-21T01:12:37.939Z,37.70
2023-03-21T01:15:48.185Z,36.43
2023-03-21T01:18:51.794Z,40.03
2023-03-21T01:21:55.364Z,37.53
2023-03-21T01:25:12.102Z,41.37
2023-03-21T01:28:26.764Z,36.80
2023-03-21T01:31:30.583Z,37.67
2023-03-21T01:34:34.131Z,33.63
2023-03-21T01:37:37.889Z,38.33
2023-03-21T01:40:42.736Z,32.83
2023-03-21T01:43:48.566Z,37.80
2023-03-21T01:47:12.314Z,36.90
2023-03-21T01:50:17.176Z,37.03
2023-03-21T01:53:23.489Z,35.73
2023-03-21T01:56:33.039Z,37.70
2023-03-21T01:59:42.119Z,36.63
2023-03-21T02:02:52.544Z,35.00
2023-03-21T02:06:01.950Z,37.87
2023-03-21T02:09:12.031Z,38.20
2023-03-21T02:12:16.344Z,39.43
2023-03-21T02:15:21.609Z,38.47
2023-03-21T02:18:37.951Z,37.57
2023-03-21T02:22:55.643Z,44.87
2023-03-21T02:26:48.191Z,43.70
2023-03-21T02:30:50.878Z,42.83
2023-03-21T02:34:51.467Z,46.00
2023-03-21T02:38:04.922Z,51.47
2023-03-21T02:41:20.029Z,49.37
2023-03-21T02:44:35.620Z,49.33
2023-03-21T02:47:47.582Z,52.03
2023-03-21T02:50:56.947Z,45.77
2023-03-21T02:54:29.910Z,54.87
2023-03-21T02:57:42.158Z,51.07
2023-03-21T03:00:48.627Z,54.50
2023-03-21T03:03:52.196Z,54.27
2023-03-21T03:07:29.621Z,49.80
2023-03-21T03:10:55.136Z,53.97
2023-03-21T03:18:01.689Z,52.13
2023-03-21T03:21:14.908Z,53.90
2023-03-21T03:24:26.029Z,59.73
2023-03-21T03:27:39.240Z,55.73
2023-03-21T03:30:54.261Z,59.20
2023-03-21T03:34:10.711Z,55.03
2023-03-21T03:37:20.224Z,56.40
2023-03-21T03:40:30.200Z,58.80
2023-03-21T03:43:42.259Z,57.30
2023-03-21T03:46:54.513Z,55.50
2023-03-21T03:50:08.947Z,56.57
2023-03-21T03:53:23.414Z,55.33
2023-03-21T03:56:27.954Z,60.37
2023-03-21T03:59:35.462Z,56.10
2023-03-21T04:02:38.986Z,62.47
2023-03-21T04:05:46.391Z,63.40
2023-03-21T04:08:51.059Z,55.67
2023-03-21T04:11:54.537Z,63.50
2023-03-21T04:15:09.555Z,58.80
2023-03-21T04:18:13.691Z,66.00
2023-03-21T04:21:17.138Z,62.47
2023-03-21T04:24:21.096Z,63.10
2023-03-21T04:27:24.574Z,65.93
2023-03-21T04:30:29.449Z,64.07
2023-03-21T04:33:38.559Z,67.50
2023-03-21T04:36:44.755Z,68.30
2023-03-21T04:39:48.725Z,65.07
2023-03-21T04:42:52.206Z,65.80
2023-03-21T04:45:57.042Z,61.60
2023-03-21T04:49:00.785Z,65.50
2023-03-21T04:52:04.358Z,67.83
2023-03-21T04:55:10.265Z,66.50
2023-03-21T04:58:13.878Z,69.87
2023-03-21T05:01:20.806Z,65.70
2023-03-21T05:04:24.491Z,65.10
2023-03-21T05:07:28.417Z,70.60
2023-03-21T05:10:32.013Z,73.63
2023-03-21T05:13:35.634Z,73.27
2023-03-21T05:16:45.229Z,77.27
2023-03-21T05:19:50.572Z,82.73
2023-03-21T05:22:54.125Z,75.20
2023-03-21T05:25:57.665Z,81.67
2023-03-21T05:29:01.184Z,70.27
2023-03-21T05:32:06.731Z,70.57
2023-03-21T05:35:11.550Z,61.43
2023-03-21T05:38:15.306Z,69.07
2023-03-21T05:41:21.417Z,67.10
2023-03-21T05:44:25.015Z,71.33
2023-03-21T05:47:29.898Z,66.87
2023-03-21T05:50:33.606Z,72.63
2023-03-21T05:53:37.257Z,82.73
2023-03-21T05:56:40.688Z,72.70
2023-03-21T05:59:44.689Z,70.43
2023-03-21T06:02:50.298Z,74.93
2023-03-21T06:05:54.288Z,64.20
2023-03-21T06:08:58.619Z,71.93
2023-03-21T06:12:02.212Z,68.57
2023-03-21T06:15:08.939Z,69.57
2023-03-21T06:18:13.896Z,64.97
2023-03-21T06:21:17.608Z,72.17
2023-03-21T06:24:21.212Z,65.47
2023-03-21T06:27:24.880Z,60.53
2023-03-21T06:30:30.590Z,68.03
2023-03-21T06:33:36.012Z,55.47
2023-03-21T06:36:39.766Z,64.33
2023-03-21T06:39:43.396Z,55.47
2023-03-21T06:42:46.902Z,61.53
2023-03-21T06:45:50.476Z,57.70
2023-03-21T06:48:55.536Z,59.47
2023-03-21T06:51:59.078Z,55.20
2023-03-21T06:55:02.834Z,56.47
2023-03-21T06:58:06.518Z,54.83
2023-03-21T07:01:10.528Z,53.53
2023-03-21T07:04:15.673Z,51.90
2023-03-21T07:07:20.482Z,53.03
2023-03-21T07:10:24.772Z,47.37
2023-03-21T07:13:28.567Z,47.73
2023-03-21T07:16:32.218Z,52.07
2023-03-21T07:19:37.301Z,47.67
2023-03-21T07:22:41.433Z,44.60
2023-03-21T07:25:45.105Z,42.07
2023-03-21T07:28:48.677Z,43.03
2023-03-21T07:31:52.220Z,43.33
2023-03-21T07:35:00.675Z,40.47
2023-03-21T07:38:05.640Z,40.47
2023-03-21T07:41:09.361Z,34.17
2023-03-21T07:44:12.890Z,41.37
2023-03-21T07:47:16.492Z,36.90
2023-03-21T07:50:22.073Z,32.53
2023-03-21T07:53:25.747Z,34.87
2023-03-21T07:56:29.293Z,35.73
2023-03-21T07:59:32.836Z,36.07
2023-03-21T08:02:36.526Z,33.73
2023-03-21T08:05:42.854Z,37.87
2023-03-21T08:08:46.369Z,35.40
2023-03-21T08:11:49.940Z,35.57
2023-03-21T08:14:53.426Z,33.80
2023-03-21T08:17:57.310Z,36.07
2023-03-21T08:21:02.848Z,34.13
2023-03-21T08:24:08.549Z,29.80
2023-03-21T08:27:12.189Z,35.40
2023-03-21T08:30:18.811Z,35.40
2023-03-21T08:33:24.699Z,35.50
2023-03-21T08:36:30.515Z,35.50
2023-03-21T08:39:36.415Z,35.30
2023-03-21T08:42:40.976Z,37.53
2023-03-21T08:45:44.603Z,33.13
2023-03-21T08:48:49.217Z,35.33
2023-03-21T08:51:57.323Z,29.23
2023-03-21T08:55:02.194Z,30.27
2023-03-21T08:58:07.184Z,35.30
2023-03-21T09:01:11.510Z,28.50
2023-03-21T09:04:15.477Z,31.97
2023-03-21T09:07:20.528Z,29.17
2023-03-21T09:10:25.811Z,33.47
2023-03-21T09:13:29.542Z,28.70
2023-03-21T09:16:34.215Z,26.43
2023-03-21T09:19:38.878Z,26.70
2023-03-21T09:22:43.824Z,27.80
2023-03-21T09:25:47.776Z,22.60
2023-03-21T09:28:52.173Z,27.33
2023-03-21T09:31:55.764Z,26.97
2023-03-21T09:34:59.266Z,25.53
2023-03-21T09:38:05.680Z,26.63
2023-03-21T09:41:38.878Z,22.50
2023-03-21T09:45:01.792Z,26.27
2023-03-21T09:48:17.585Z,23.90
2023-03-21T09:51:23.907Z,25.87
2023-03-21T09:54:35.819Z,23.87
2023-03-21T09:57:45.110Z,18.67
2023-03-21T10:00:56.759Z,21.50
2023-03-21T10:04:06.436Z,23.77
2023-03-21T10:07:18.202Z,18.03
2023-03-21T10:10:29.835Z,19.83
2023-03-21T10:13:41.044Z,20.47
2023-03-21T10:16:48.356Z,19.87
2023-03-21T10:20:05.070Z,18.87
2023-03-21T10:23:14.427Z,22.30
2023-03-21T10:26:22.488Z,21.50
2023-03-21T10:29:31.718Z,20.83
2023-03-21T10:32:36.305Z,17.67
2023-03-21T10:35:42.919Z,16.47
2023-03-21T10:38:51.951Z,26.43
2023-03-21T10:41:57.412Z,15.70
2023-03-21T10:45:01.484Z,20.03
2023-03-21T10:48:11.014Z,21.07
2023-03-21T10:51:21.886Z,19.43
2023-03-21T10:54:32.265Z,20.73
2023-03-21T10:57:39.081Z,21.43
2023-03-21T11:00:45.216Z,22.90
2023-03-21T11:03:49.556Z,18.67
2023-03-21T11:06:59.622Z,20.37
2023-03-21T11:10:29.190Z,19.63
2023-03-21T11:13:41.240Z,19.10
2023-03-21T11:16:46.274Z,19.33
2023-03-21T11:19:54.118Z,18.20
2023-03-21T11:22:58.966Z,16.33
2023-03-21T11:26:24.142Z,20.13
2023-03-21T11:29:39.075Z,18.17
2023-03-21T11:32:59.803Z,18.37
2023-03-21T11:36:09.142Z,21.57
2023-03-21T11:39:34.402Z,20.53
2023-03-21T11:42:44.951Z,19.30
2023-03-21T11:46:01.360Z,19.80
2023-03-21T11:49:05.472Z,19.77
2023-03-21T11:52:24.765Z,17.63
2023-03-21T11:55:47.335Z,17.50
2023-03-21T11:59:09.249Z,18.40
2023-03-21T12:02:54.980Z,19.47
2023-03-21T12:06:07.066Z,17.33
2023-03-21T12:09:33.697Z,18.67
2023-03-21T12:12:52.877Z,19.47
2023-03-21T12:16:12.230Z,17.80
2023-03-21T12:19:53.824Z,19.73
2023-03-21T12:23:36.997Z,21.77
2023-03-21T12:26:57.445Z,19.53
2023-03-21T12:30:24.657Z,21.63
2023-03-21T12:33:59.076Z,21.77
2023-03-21T12:37:24.666Z,23.17
2023-03-21T12:40:51.362Z,22.40
2023-03-21T12:44:04.193Z,22.67
2023-03-21T12:47:14.675Z,25.03
2023-03-21T12:50:26.251Z,25.73
2023-03-21T12:53:49.348Z,26.40
2023-03-21T12:57:00.937Z,26.17
2023-03-21T13:00:17.679Z,29.57
2023-03-21T13:03:37.392Z,28.47
2023-03-21T13:06:46.847Z,26.37
2023-03-21T13:09:55.089Z,23.43
2023-03-21T13:13:18.821Z,28.03
2023-03-21T13:16:29.290Z,27.47
2023-03-21T13:19:42.648Z,27.27
2023-03-21T13:22:46.917Z,28.47
2023-03-21T13:25:56.194Z,26.60
2023-03-21T13:29:00.663Z,29.07
2023-03-21T13:32:31.867Z,27.90
2023-03-21T13:35:40.926Z,32.97
2023-03-21T13:38:52.777Z,27.13
2023-03-21T13:42:05.631Z,27.90
2023-03-21T13:45:24.028Z,27.57
2023-03-21T13:48:31.301Z,25.90
2023-03-21T13:51:47.643Z,26.37
2023-03-21T13:54:56.203Z,26.40
2023-03-21T13:58:01.236Z,25.87
2023-03-21T14:01:23.730Z,22.17
2023-03-21T14:04:42.420Z,21.50
2023-03-21T14:08:06.033Z,20.87
2023-03-21T14:11:18.331Z,17.67
2023-03-21T14:14:32.929Z,19.47
2023-03-21T14:17:37.352Z,20.63
2023-03-21T14:20:42.265Z,19.97
2023-03-21T14:23:45.939Z,17.73
2023-03-21T14:26:52.623Z,18.00
2023-03-21T14:29:59.355Z,26.97
2023-03-21T14:33:13.424Z,18.77
2023-03-21T14:36:21.907Z,20.60
2023-03-21T14:39:30.404Z,21.63
2023-03-21T14:42:37.379Z,20.33
2023-03-21T14:45:42.697Z,26.23
2023-03-21T14:48:46.292Z,21.50
2023-03-21T14:51:52.493Z,20.33
2023-03-21T14:54:57.310Z,24.87
2023-03-21T14:58:01.030Z,27.30
2023-03-21T15:01:13.834Z,24.80
2023-03-21T15:04:18.679Z,24.00
2023-03-21T15:07:32.369Z,23.63
2023-03-21T15:10:36.125Z,23.17
2023-03-21T15:13:50.112Z,26.43
2023-03-21T15:16:56.789Z,25.90
2023-03-21T15:20:00.506Z,24.33
2023-03-21T15:23:10.716Z,19.83
2023-03-21T15:26:17.778Z,21.77
2023-03-21T15:29:21.433Z,23.30
2023-03-21T15:32:29.853Z,22.40
2023-03-21T15:35:39.256Z,20.67
2023-03-21T15:38:45.189Z,18.37
2023-03-21T15:42:03.746Z,19.80
2023-03-21T15:45:18.288Z,18.37
2023-03-21T15:48:29.501Z,23.10
2023-03-21T15:51:34.820Z,22.73
2023-03-21T15:54:45.058Z,21.77
2023-03-21T15:57:50.126Z,20.17
2023-03-21T16:00:56.590Z,23.17
2023-03-21T16:04:10.233Z,19.37
2023-03-21T16:07:18.098Z,20.07
2023-03-21T16:10:31.620Z,20.00
2023-03-21T16:13:35.201Z,18.10
2023-03-21T16:16:39.441Z,18.07
2023-03-21T16:19:45.062Z,20.60
2023-03-21T16:22:49.112Z,19.80
2023-03-21T16:25:57.750Z,21.03
2023-03-21T16:29:01.744Z,19.07
2023-03-21T16:32:06.716Z,19.87
2023-03-21T16:35:12.476Z,17.83
2023-03-21T16:38:16.430Z,18.67
2023-03-21T16:41:21.585Z,20.73
2023-03-21T16:44:25.103Z,20.63
2023-03-21T16:47:29.060Z,18.17
2023-03-21T16:50:38.098Z,19.40
2023-03-21T16:53:41.768Z,22.67
2023-03-21T16:56:50.527Z,18.87
2023-03-21T16:59:54.378Z,20.13
2023-03-21T17:03:01.617Z,21.77
2023-03-21T17:06:07.371Z,21.27
2023-03-21T17:09:14.085Z,19.67
2023-03-21T17:12:18.115Z,18.57
2023-03-21T17:15:22.975Z,20.07
2023-03-21T17:18:26.517Z,20.73
2023-03-21T17:21:32.094Z,20.77
2023-03-21T17:24:36.720Z,20.80
2023-03-21T17:27:40.769Z,23.27
2023-03-21T17:30:44.602Z,17.20
2023-03-21T17:33:49.506Z,21.23
2023-03-21T17:36:54.429Z,19.00
2023-03-21T17:39:58.070Z,21.00
2023-03-21T17:43:02.085Z,17.37
2023-03-21T17:46:06.323Z,20.27
2023-03-21T17:49:15.847Z,17.30
2023-03-21T17:52:20.897Z,17.87
2023-03-21T17:55:24.794Z,28.17
2023-03-21T17:58:28.494Z,17.30
2023-03-21T18:01:32.346Z,17.53
2023-03-21T18:04:36.044Z,17.57
2023-03-21T18:11:07.092Z,18.13
2023-03-21T18:14:17.669Z,20.43
2023-03-21T18:17:22.736Z,17.37
2023-03-21T18:20:49.783Z,19.20
2023-03-21T18:23:53.320Z,18.47
2023-03-21T18:26:57.120Z,18.83
2023-03-21T18:33:24.471Z,17.33
2023-03-21T18:36:29.010Z,15.07
2023-03-21T18:39:34.553Z,15.67
2023-03-21T18:42:38.171Z,18.73
2023-03-21T18:45:43.962Z,17.77
2023-03-21T18:48:47.980Z,15.70
2023-03-21T18:51:52.592Z,12.90
2023-03-21T18:54:58.250Z,14.60
2023-03-21T18:58:02.323Z,14.30
2023-03-21T19:01:06.378Z,12.97
2023-03-21T19:04:21.369Z,13.67
2023-03-21T19:07:29.943Z,11.60
2023-03-21T19:10:35.864Z,14.50
2023-03-21T19:13:39.632Z,14.60
2023-03-21T19:20:08.951Z,12.57
2023-03-21T19:23:12.476Z,13.43
2023-03-21T19:26:17.475Z,11.87
2023-03-21T19:29:21.204Z,15.17
2023-03-21T19:32:25.111Z,13.47
2023-03-21T19:35:29.047Z,15.23
2023-03-21T19:38:32.804Z,11.30
2023-03-21T19:41:40.372Z,11.80
2023-03-21T19:44:44.245Z,11.60
2023-03-21T19:47:47.757Z,11.20
2023-03-21T19:51:24.480Z,10.90
2023-03-21T19:54:17.339Z,10.97
2023-03-21T19:57:24.917Z,9.40
2023-03-21T20:00:28.846Z,14.93
2023-03-21T20:03:32.422Z,10.00
2023-03-21T20:06:36.183Z,15.67
2023-03-21T20:09:57.328Z,15.67
2023-03-21T20:13:02.368Z,10.50
2023-03-21T20:16:07.323Z,10.50
2023-03-21T20:19:16.264Z,12.67
2023-03-21T20:22:28.071Z,12.17
2023-03-21T20:25:45.233Z,9.17
2023-03-21T20:29:21.682Z,12.10
2023-03-21T20:32:20.637Z,11.20
2023-03-21T20:35:47.982Z,10.83
2023-03-21T20:38:48.203Z,12.47
2023-03-21T20:41:51.756Z,11.37
2023-03-21T20:44:59.020Z,10.77
2023-03-21T20:48:04.864Z,14.30
2023-03-21T20:54:36.859Z,9.07
2023-03-21T20:57:41.102Z,14.50
2023-03-21T21:00:46.366Z,14.67
2023-03-21T21:03:50.396Z,11.03
2023-03-21T21:06:53.984Z,14.73
2023-03-21T21:09:57.791Z,10.87
2023-03-21T21:13:01.302Z,12.67
2023-03-21T21:16:08.797Z,12.23
2023-03-21T21:19:12.461Z,10.37
2023-03-21T21:22:16.175Z,12.57
2023-03-21T21:25:19.982Z,11.73
2023-03-21T21:28:25.040Z,13.03
2023-03-21T21:31:30.140Z,11.67
2023-03-21T21:34:34.855Z,10.47
2023-03-21T21:37:38.473Z,13.57
2023-03-21T21:40:42.157Z,10.73
2023-03-21T21:43:45.965Z,12.97
2023-03-21T21:46:51.361Z,9.87
2023-03-21T21:49:54.935Z,10.90
2023-03-21T21:53:03.563Z,15.03
2023-03-21T21:56:08.561Z,10.00
2023-03-21T21:59:16.061Z,11.30
2023-03-21T22:02:25.461Z,10.70
2023-03-21T22:05:29.369Z,17.43
2023-03-21T22:08:32.996Z,14.07
2023-03-21T22:11:36.536Z,12.63
2023-03-21T22:14:40.028Z,13.20
2023-03-21T22:17:46.750Z,12.50
2023-03-21T22:20:50.513Z,16.57
2023-03-21T22:23:54.016Z,15.13
2023-03-21T22:26:58.797Z,13.47
2023-03-21T22:30:04.895Z,12.27
2023-03-21T22:33:10.272Z,13.93
2023-03-21T22:36:14.155Z,18.20
2023-03-21T22:39:18.710Z,13.90
2023-03-21T22:42:22.425Z,15.33
2023-03-21T22:45:25.924Z,17.57
2023-03-21T22:48:31.311Z,16.23
2023-03-21T22:51:35.157Z,16.23
2023-03-21T22:54:39.717Z,18.17
2023-03-21T22:57:43.593Z,17.93
2023-03-21T23:00:47.245Z,17.30
2023-03-21T23:03:52.454Z,15.90
2023-03-21T23:06:56.430Z,13.43
2023-03-21T23:09:59.941Z,18.50
2023-03-21T23:13:03.407Z,15.03
2023-03-21T23:16:08.409Z,15.37
2023-03-21T23:19:14.129Z,16.27
2023-03-21T23:22:17.573Z,16.13
2023-03-21T23:25:22.096Z,14.93
2023-03-21T23:28:25.804Z,15.97
2023-03-21T23:31:30.021Z,14.73
2023-03-21T23:34:35.249Z,15.57
2023-03-21T23:37:42.419Z,16.40
2023-03-21T23:40:45.972Z,17.33
2023-03-21T23:43:51.153Z,18.63
2023-03-21T23:46:54.764Z,18.23
2023-03-21T23:49:59.669Z,17.60
2023-03-21T23:53:03.216Z,16.93
2023-03-21T23:56:13.341Z,17.50
2023-03-21T23:59:16.848Z,17.83
